Terminal Aerodrome Forecast
Issued by NWS Upton, NY

Home | Current Version | Previous Version | Text Only | Print | Product List | Glossary On
Versions: 1 2 3 4 5 6 7 8 9 10 11 12 13 14 15 16 17 18 19 20 21 22 23 24 25 26 27 28
000
FTUS41 KOKX 241940 AAA
TAFISP
TAF AMD
KISP 241940Z 2420/2518 21015G21KT P6SM SCT250
     FM250000 21010KT P6SM SCT250
     FM250300 21006KT P6SM BKN150
     FM251400 20012KT P6SM SCT150 BKN200=

USA.gov is the U.S. government's official web portal to all federal, state and local government web resources and services.